.
WxDataArchive / Data Records for 2011-06-18
2011-06-17 June 2011 2011-06-19

Data Records for Saturday, 18 June 2011

Time	Temp	Chill	HIndex	Humid	Dewpt	 Wind 	HiWind	WindDir	Rain 	Barom 
-----	----	-----	------	-----	-----	------	------	-------	-----	----- 
00:00	72.3	72.3	72.3	72	62.8	0	1	90	0.00	29.852 
00:05	72.1	72.1	72.1	72	62.6	0	1	90	0.00	29.852 
00:10	72.1	72.1	72.1	73	63.0	0	1	90	0.00	29.852 
00:15	72.0	72.0	72.0	73	62.9	0	0	---	0.00	29.852 
00:20	71.8	71.8	71.8	73	62.7	0	0	---	0.00	29.852 
00:25	71.8	71.8	71.8	73	62.7	0	0	---	0.00	29.852 
00:30	71.5	71.5	71.5	74	62.8	0	0	---	0.00	29.852 
00:35	71.3	71.3	71.3	74	62.6	0	0	---	0.00	29.852 
00:40	70.9	70.9	70.9	75	62.6	0	0	---	0.00	29.852 
00:45	70.8	70.8	70.8	75	62.5	0	0	---	0.00	29.858 
00:50	70.6	70.6	70.6	75	62.3	0	0	---	0.00	29.858 
00:55	70.3	70.3	70.3	77	62.7	0	0	---	0.00	29.858 
01:00	70.1	70.1	70.1	77	62.5	0	0	---	0.00	29.851 
01:05	69.9	69.9	69.9	77	62.3	0	0	---	0.00	29.851 
01:10	69.8	69.8	69.8	78	62.6	0	0	---	0.00	29.851 
01:15	69.6	69.6	69.6	78	62.4	0	0	---	0.00	29.857 
01:20	69.4	69.4	69.4	78	62.2	0	0	---	0.00	29.857 
01:25	69.3	69.3	69.3	79	62.5	0	0	---	0.00	29.857 
01:30	69.1	69.1	69.1	79	62.3	0	0	---	0.00	29.863 
01:35	68.9	68.9	68.9	80	62.5	0	0	---	0.00	29.863 
01:40	68.6	68.6	68.6	80	62.2	0	0	---	0.00	29.863 
01:45	68.4	68.4	68.4	81	62.3	0	0	---	0.00	29.860 
01:50	68.4	68.4	68.4	81	62.3	0	0	---	0.00	29.860 
01:55	68.3	68.3	68.3	81	62.2	0	0	---	0.00	29.860 
02:00	68.1	68.1	68.1	82	62.4	0	0	---	0.00	29.856 
02:05	67.9	67.9	67.9	82	62.2	0	0	---	0.00	29.856 
02:10	67.8	67.8	67.8	83	62.4	0	0	---	0.00	29.856 
02:15	67.6	67.6	67.6	84	62.6	0	0	---	0.00	29.856 
02:20	67.6	67.6	67.6	84	62.6	0	0	---	0.00	29.856 
02:25	67.4	67.4	67.4	84	62.4	0	0	---	0.00	29.856 
02:30	67.4	67.4	67.4	84	62.4	0	0	---	0.00	29.854 
02:35	67.3	67.3	67.3	85	62.6	0	0	---	0.00	29.854 
02:40	67.1	67.1	67.1	85	62.4	0	0	---	0.00	29.854 
02:45	66.9	66.9	66.9	85	62.2	0	0	---	0.00	29.858 
02:50	66.9	66.9	66.9	86	62.6	0	0	---	0.00	29.858 
02:55	66.8	66.8	66.8	86	62.5	0	0	---	0.00	29.858 
03:00	66.6	66.6	66.6	86	62.3	0	0	---	0.00	29.861 
03:05	66.6	66.6	66.6	87	62.6	0	0	---	0.00	29.861 
03:10	66.6	66.6	66.6	87	62.6	0	0	---	0.00	29.861 
03:15	66.4	66.4	66.4	87	62.4	0	0	---	0.00	29.856 
03:20	66.4	66.4	66.4	87	62.4	0	0	---	0.00	29.856 
03:25	66.3	66.3	66.3	87	62.3	0	0	---	0.00	29.856 
03:30	66.3	66.3	66.3	87	62.3	0	0	---	0.00	29.856 
03:35	66.1	66.1	66.1	87	62.1	0	0	---	0.00	29.856 
03:40	66.1	66.1	66.1	88	62.4	0	0	---	0.00	29.856 
03:45	66.0	66.0	66.0	88	62.3	0	0	---	0.00	29.858 
03:50	66.0	66.0	66.0	88	62.3	0	0	---	0.00	29.858 
03:55	66.0	66.0	66.0	88	62.3	0	0	---	0.00	29.858 
04:00	66.0	66.0	66.0	88	62.3	0	0	---	0.00	29.855 
04:05	65.8	65.8	65.8	89	62.5	0	0	---	0.00	29.855 
04:10	65.8	65.8	65.8	89	62.5	0	1	90	0.00	29.855 
04:15	65.8	65.8	65.8	89	62.5	0	0	---	0.00	29.852 
04:20	65.8	65.8	65.8	89	62.5	0	0	---	0.00	29.852 
04:25	66.0	66.0	66.0	89	62.7	0	1	90	0.00	29.852 
04:30	66.1	66.1	66.1	88	62.4	0	0	---	0.00	29.839 
04:35	66.1	66.1	66.1	88	62.4	0	1	90	0.00	29.839 
04:40	66.3	66.3	66.3	88	62.6	0	1	90	0.00	29.839 
04:45	66.3	66.3	66.3	88	62.6	0	1	90	0.00	29.836 
04:50	66.3	66.3	66.3	88	62.6	0	0	---	0.00	29.836 
04:55	66.3	66.3	66.3	88	62.6	0	1	90	0.00	29.836 
05:00	66.4	66.4	66.4	88	62.7	0	1	90	0.00	29.838 
05:05	66.4	66.4	66.4	88	62.7	0	2	90	0.00	29.838 
05:10	66.4	66.4	66.4	88	62.7	0	1	90	0.00	29.838 
05:15	66.4	66.4	66.4	88	62.7	0	0	---	0.00	29.834 
05:20	66.3	66.3	66.3	88	62.6	0	0	---	0.00	29.834 
05:25	66.3	66.3	66.3	88	62.6	0	0	---	0.00	29.834 
05:30	66.1	66.1	66.1	88	62.4	0	0	---	0.00	29.835 
05:35	66.1	66.1	66.1	88	62.4	0	0	---	0.00	29.835 
05:40	66.0	66.0	66.0	89	62.7	0	0	---	0.00	29.835 
05:45	65.8	65.8	65.8	89	62.5	0	0	---	0.00	29.836 
05:50	65.8	65.8	65.8	89	62.5	0	1	90	0.00	29.836 
05:55	65.8	65.8	65.8	90	62.8	0	1	90	0.00	29.836 
06:00	66.0	66.0	66.0	90	63.0	0	2	90	0.00	29.834 
06:05	66.0	66.0	66.0	90	63.0	0	1	90	0.00	29.834 
06:10	66.0	66.0	66.0	90	63.0	0	0	---	0.00	29.834 
06:15	66.0	66.0	66.0	90	63.0	0	0	---	0.00	29.847 
06:20	66.0	66.0	66.0	90	63.0	0	0	---	0.00	29.847 
06:25	66.0	66.0	66.0	90	63.0	0	0	---	0.00	29.847 
06:30	66.0	66.0	66.0	91	63.3	0	0	---	0.00	29.858 
06:35	66.0	66.0	66.0	91	63.3	0	0	---	0.00	29.858 
06:40	66.0	66.0	66.0	91	63.3	0	0	---	0.00	29.858 
06:45	66.0	66.0	66.0	91	63.3	0	0	---	0.00	29.857 
06:50	66.0	66.0	66.0	91	63.3	0	0	---	0.00	29.857 
06:55	66.0	66.0	66.0	91	63.3	0	0	---	0.00	29.857 
07:00	66.0	66.0	66.0	91	63.3	0	0	---	0.00	29.862 
07:05	66.1	66.1	66.1	91	63.4	0	0	---	0.00	29.862 
07:10	66.1	66.1	66.1	91	63.4	0	0	---	0.00	29.862 
07:15	66.1	66.1	66.1	91	63.4	0	0	---	0.00	29.867 
07:20	66.3	66.3	66.3	91	63.6	0	0	---	0.00	29.867 
07:25	66.4	66.4	66.4	91	63.7	0	0	---	0.00	29.867 
07:30	66.6	66.6	66.6	91	63.9	0	0	---	0.00	29.870 
07:35	66.8	66.8	66.8	91	64.1	0	1	90	0.00	29.870 
07:40	66.8	66.8	66.8	90	63.8	0	1	90	0.00	29.870 
07:45	66.9	66.9	66.9	90	63.9	0	2	90	0.00	29.870 
07:50	67.1	67.1	67.1	90	64.1	0	2	90	0.00	29.870 
07:55	67.1	67.1	67.1	89	63.7	0	2	90	0.00	29.870 
08:00	67.3	67.3	67.3	89	63.9	0	1	90	0.00	29.880 
08:05	67.4	67.4	67.4	88	63.7	0	1	90	0.00	29.880 
08:10	67.6	67.6	67.6	88	63.9	0	1	90	0.00	29.880 
08:15	67.8	67.8	67.8	88	64.1	1	3	90	0.00	29.879 
08:20	67.8	67.8	67.8	87	63.8	0	1	90	0.00	29.879 
08:25	67.9	67.9	67.9	87	63.9	0	2	90	0.00	29.879 
08:30	68.1	68.1	68.1	87	64.1	0	1	90	0.00	29.879 
08:35	68.3	68.3	68.3	87	64.3	0	2	90	0.00	29.879 
08:40	68.4	68.4	68.4	86	64.0	1	3	90	0.00	29.879 
08:45	68.8	68.8	68.8	86	64.4	0	2	90	0.00	29.873 
08:50	69.1	69.1	69.1	85	64.4	0	1	90	0.00	29.873 
08:55	69.4	69.4	69.4	84	64.3	0	3	90	0.00	29.873 
09:00	69.4	69.4	69.4	84	64.3	1	2	90	0.00	29.872 
09:05	69.6	69.6	69.6	84	64.5	0	3	90	0.00	29.872 
09:10	69.6	69.6	69.6	84	64.5	1	3	90	0.00	29.872 
09:15	69.8	69.8	69.8	84	64.7	0	1	90	0.00	29.875 
09:20	69.9	69.9	69.9	84	64.8	0	1	90	0.00	29.875 
09:25	70.1	70.1	70.1	84	65.0	0	1	90	0.00	29.875 
09:30	70.3	70.3	70.3	83	64.9	0	1	90	0.00	29.879 
09:35	70.4	70.4	70.4	83	65.0	0	1	90	0.00	29.879 
09:40	70.6	70.6	70.6	82	64.8	0	3	90	0.00	29.879 
09:45	70.8	70.8	70.8	82	65.0	0	1	90	0.00	29.869 
09:50	71.1	71.1	71.1	82	65.3	0	2	90	0.00	29.869 
09:55	71.5	71.5	71.5	81	65.4	0	0	---	0.00	29.869 
10:00	71.6	71.6	71.6	81	65.4	0	4	90	0.00	29.866 
10:05	71.8	71.8	71.8	80	65.3	1	3	90	0.00	29.866 
10:10	72.1	72.1	72.1	80	65.6	1	3	90	0.00	29.866 
10:15	72.7	72.7	72.7	79	65.8	0	2	90	0.00	29.872 
10:20	72.8	72.8	72.8	79	65.9	0	1	90	0.00	29.872 
10:25	73.2	73.2	73.2	79	66.3	0	2	90	0.00	29.872 
10:30	73.3	73.3	73.3	77	65.6	2	4	90	0.00	29.872 
10:35	73.7	73.7	73.7	77	66.0	0	1	90	0.00	29.872 
10:40	73.9	73.9	73.9	77	66.2	1	4	90	0.00	29.872 
10:45	74.4	74.4	74.4	77	66.7	0	4	90	0.00	29.869 
10:50	74.6	74.6	74.6	76	66.5	1	3	90	0.00	29.869 
10:55	74.6	74.6	74.6	76	66.5	1	3	90	0.00	29.869 
11:00	74.7	74.7	74.7	77	67.0	0	2	90	0.00	29.865 
11:05	75.4	75.4	76.6	75	66.9	1	2	90	0.00	29.865 
11:10	75.8	75.8	77.3	73	66.5	2	4	90	0.00	29.865 
11:15	76.3	76.3	77.8	73	67.0	1	3	90	0.00	29.857 
11:20	77.2	77.2	79.0	72	67.5	0	2	90	0.00	29.857 
11:25	78.3	78.3	80.4	70	67.7	0	3	90	0.00	29.857 
11:30	78.5	78.5	80.7	70	67.9	2	5	90	0.00	29.856 
11:35	78.8	78.8	81.1	69	67.7	0	3	112	0.00	29.856 
11:40	78.8	78.8	80.9	66	66.5	1	5	112	0.00	29.856 
11:45	79.0	79.0	81.2	67	67.1	1	3	68	0.00	29.856 
11:50	79.2	79.2	81.4	66	66.8	1	4	68	0.00	29.856 
11:55	79.4	79.4	81.7	67	67.5	0	2	68	0.00	29.856 
12:00	79.6	79.6	81.9	66	67.2	1	5	68	0.00	29.856 
12:05	79.8	79.8	82.1	65	67.0	1	4	68	0.00	29.856 
12:10	79.6	79.6	81.8	65	66.8	1	4	90	0.00	29.856 
12:15	79.8	79.8	82.1	65	67.0	1	3	90	0.00	29.864 
12:20	80.3	80.3	82.8	65	67.4	1	3	90	0.00	29.864 
12:25	80.3	80.3	82.7	64	67.0	2	3	90	0.00	29.864 
12:30	79.8	79.8	82.0	64	66.5	1	4	90	0.00	29.862 
12:35	79.8	79.8	82.1	65	67.0	1	3	90	0.00	29.862 
12:40	79.6	79.6	81.8	65	66.8	1	3	90	0.00	29.862 
12:45	79.4	79.4	81.5	64	66.1	0	2	112	0.00	29.861 
12:50	79.9	79.9	82.5	67	67.9	0	1	112	0.00	29.861 
12:55	80.3	80.3	82.4	62	66.1	0	3	112	0.00	29.861 
13:00	80.5	80.5	82.9	64	67.2	0	1	135	0.00	29.851 
13:05	80.5	80.5	82.8	63	66.7	0	2	135	0.00	29.851 
13:10	80.5	80.5	82.9	64	67.2	0	2	135	0.00	29.851 
13:15	80.5	80.5	82.9	64	67.2	0	3	68	0.00	29.844 
13:20	80.7	80.7	83.4	65	67.8	0	2	68	0.00	29.844 
13:25	81.1	81.1	83.3	61	66.4	0	1	68	0.00	29.844 
13:30	81.1	81.1	83.5	62	66.8	1	4	90	0.00	29.839 
13:35	80.9	80.9	83.2	62	66.6	1	3	90	0.00	29.839 
13:40	81.1	81.1	83.6	63	67.3	0	1	90	0.00	29.839 
13:45	80.9	80.9	83.2	62	66.6	0	3	90	0.00	29.830 
13:50	80.5	80.5	82.8	63	66.7	0	2	90	0.00	29.830 
13:55	80.5	80.5	82.8	63	66.7	1	3	90	0.00	29.830 
14:00	80.7	80.7	82.9	62	66.4	0	1	90	0.00	29.827 
14:05	81.2	81.2	83.6	62	66.9	1	3	90	0.00	29.827 
14:10	81.2	81.2	83.5	61	66.4	1	4	90	0.00	29.827 
14:15	82.0	82.0	84.8	62	67.7	1	2	90	0.00	29.818 
14:20	82.6	82.6	85.3	60	67.3	0	2	90	0.00	29.818 
14:25	83.0	83.0	86.4	62	68.6	1	4	112	0.00	29.818 
14:30	83.4	83.4	86.5	60	68.0	1	4	112	0.00	29.811 
14:35	83.4	83.4	86.5	60	68.0	2	4	112	0.00	29.811 
14:40	83.6	83.6	86.4	58	67.2	1	4	90	0.00	29.811 
14:45	83.2	83.2	85.8	58	66.9	1	3	112	0.00	29.804 
14:50	83.0	83.0	85.5	58	66.7	0	2	112	0.00	29.804 
14:55	83.0	83.0	85.7	59	67.2	1	5	112	0.00	29.804 
15:00	82.4	82.4	84.6	58	66.1	2	6	90	0.00	29.801 
15:05	82.2	82.2	84.5	59	66.4	1	3	90	0.00	29.801 
15:10	81.8	81.8	84.0	59	66.0	2	5	90	0.00	29.801 
15:15	81.6	81.6	83.9	60	66.3	2	4	90	0.00	29.792 
15:20	81.8	81.8	84.0	59	66.0	1	4	68	0.00	29.792 
15:25	82.4	82.4	84.4	57	65.6	2	5	68	0.00	29.792 
15:30	82.2	82.2	84.2	57	65.4	3	6	112	0.00	29.790 
15:35	81.8	81.8	84.0	59	66.0	1	4	112	0.00	29.790 
15:40	81.4	81.4	83.3	58	65.2	1	4	112	0.00	29.790 
15:45	81.4	81.4	83.6	60	66.2	1	6	112	0.00	29.793 
15:50	80.7	80.7	83.1	63	66.9	0	2	315	0.00	29.793 
15:55	79.8	79.8	82.2	66	67.4	1	4	270	0.00	29.793 
16:00	79.4	79.4	81.7	67	67.5	0	1	270	0.00	29.791 
16:05	78.8	78.8	80.9	67	66.9	1	4	292	0.00	29.791 
16:10	78.1	78.1	80.1	69	67.1	1	3	270	0.00	29.791 
16:15	77.4	77.4	79.2	69	66.4	1	4	270	0.00	29.795 
16:20	77.2	77.2	79.0	71	67.0	1	3	270	0.00	29.795 
16:25	77.2	77.2	79.0	73	67.9	1	3	270	0.00	29.795 
16:30	77.2	77.2	79.0	76	69.0	1	3	315	0.02	29.808 
16:35	76.8	76.8	78.2	80	70.1	0	1	112	0.03	29.808 
16:40	76.0	76.0	76.8	82	70.1	1	2	112	0.01	29.808 
16:45	75.1	75.1	75.3	83	69.6	0	2	112	0.00	29.815 
16:50	74.2	74.2	74.2	84	69.0	0	2	112	0.00	29.815 
16:55	73.7	73.7	73.7	85	68.9	0	2	112	0.01	29.815 
17:00	73.3	73.3	73.3	86	68.8	0	1	112	0.00	29.811 
17:05	73.2	73.2	73.2	87	69.1	0	0	---	0.00	29.811 
17:10	73.0	73.0	73.0	88	69.2	0	0	---	0.00	29.811 
17:15	72.8	72.8	72.8	88	69.0	0	0	---	0.00	29.796 
17:20	72.8	72.8	72.8	89	69.4	0	0	---	0.00	29.796 
17:25	73.0	73.0	73.0	89	69.6	0	2	112	0.00	29.796 
17:30	73.2	73.2	73.2	89	69.8	0	1	112	0.00	29.794 
17:35	73.5	73.5	73.5	90	70.4	0	1	112	0.00	29.794 
17:40	73.5	73.5	73.5	88	69.7	1	4	112	0.00	29.794 
17:45	73.9	73.9	73.9	86	69.4	0	1	112	0.00	29.796 
17:50	74.0	74.0	74.0	85	69.2	0	0	---	0.00	29.796 
17:55	74.2	74.2	74.2	86	69.7	0	0	---	0.00	29.796 
18:00	74.4	74.4	74.4	85	69.6	0	0	---	0.00	29.796 
18:05	74.2	74.2	74.2	85	69.4	0	0	---	0.00	29.796 
18:10	74.2	74.2	74.2	84	69.0	0	0	---	0.00	29.796 
18:15	74.2	74.2	74.2	84	69.0	0	0	---	0.00	29.801 
18:20	74.4	74.4	74.4	84	69.2	0	0	---	0.00	29.801 
18:25	74.4	74.4	74.4	84	69.2	0	0	---	0.00	29.801 
18:30	74.7	74.7	74.7	86	70.2	0	0	---	0.00	29.807 
18:35	74.7	74.7	74.7	86	70.2	0	0	---	0.00	29.807 
18:40	74.7	74.7	74.7	86	70.2	0	0	---	0.00	29.807 
18:45	74.9	74.9	74.9	86	70.4	0	1	112	0.00	29.808 
18:50	74.9	74.9	74.9	86	70.4	0	0	---	0.00	29.808 
18:55	75.1	75.1	74.9	86	70.6	0	0	---	0.00	29.808 
19:00	75.1	75.1	74.7	87	71.0	0	0	---	0.00	29.803 
19:05	75.1	75.1	74.9	86	70.6	0	0	---	0.00	29.803 
19:10	75.1	75.1	75.0	85	70.3	0	0	---	0.00	29.803 
19:15	75.1	75.1	75.0	85	70.3	0	0	---	0.00	29.799 
19:20	75.1	75.1	75.0	85	70.3	0	0	---	0.00	29.799 
19:25	75.1	75.1	75.2	84	69.9	0	1	112	0.00	29.799 
19:30	75.1	75.1	75.5	82	69.2	0	0	---	0.00	29.806 
19:35	75.1	75.1	75.5	82	69.2	0	0	---	0.00	29.806 
19:40	75.1	75.1	75.5	82	69.2	0	0	---	0.00	29.806 
19:45	75.1	75.1	75.5	82	69.2	0	0	---	0.00	29.808 
19:50	75.1	75.1	75.5	82	69.2	0	0	---	0.00	29.808 
19:55	75.1	75.1	75.5	82	69.2	0	0	---	0.00	29.808 
20:00	75.1	75.1	75.3	83	69.6	0	0	---	0.00	29.811 
20:05	75.1	75.1	75.3	83	69.6	0	0	---	0.00	29.811 
20:10	75.1	75.1	75.2	84	69.9	0	0	---	0.00	29.811 
20:15	74.9	74.9	74.9	83	69.4	0	0	---	0.00	29.813 
20:20	74.7	74.7	74.7	84	69.5	0	0	---	0.00	29.813 
20:25	74.6	74.6	74.6	83	69.1	0	0	---	0.00	29.813 
20:30	74.4	74.4	74.4	84	69.2	0	0	---	0.00	29.822 
20:35	74.4	74.4	74.4	84	69.2	0	0	---	0.00	29.822 
20:40	74.4	74.4	74.4	84	69.2	0	0	---	0.00	29.822 
20:45	74.4	74.4	74.4	85	69.6	0	0	---	0.00	29.825 
20:50	74.2	74.2	74.2	85	69.4	0	0	---	0.00	29.825 
20:55	74.0	74.0	74.0	86	69.5	0	0	---	0.00	29.825 
21:00	73.9	73.9	73.9	86	69.4	0	0	---	0.00	29.824 
21:05	73.7	73.7	73.7	86	69.2	0	0	---	0.00	29.824 
21:10	73.5	73.5	73.5	87	69.4	0	0	---	0.00	29.824 
21:15	73.2	73.2	73.2	87	69.1	0	0	---	0.00	29.824 
21:20	73.0	73.0	73.0	87	68.9	0	0	---	0.00	29.824 
21:25	73.0	73.0	73.0	88	69.2	0	0	---	0.00	29.824 
21:30	72.8	72.8	72.8	88	69.0	0	0	---	0.00	29.824 
21:35	72.8	72.8	72.8	88	69.0	0	0	---	0.00	29.824 
21:40	72.5	72.5	72.5	89	69.1	0	1	112	0.00	29.824 
21:45	72.3	72.3	72.3	89	68.9	0	0	---	0.00	29.825 
21:50	72.3	72.3	72.3	89	68.9	0	0	---	0.00	29.825 
21:55	72.1	72.1	72.1	89	68.7	0	0	---	0.00	29.825 
22:00	72.0	72.0	72.0	89	68.6	0	0	---	0.00	29.824 
22:05	71.8	71.8	71.8	90	68.7	0	0	---	0.00	29.824 
22:10	71.8	71.8	71.8	90	68.7	0	0	---	0.00	29.824 
22:15	71.6	71.6	71.6	90	68.5	0	0	---	0.00	29.821 
22:20	71.6	71.6	71.6	90	68.5	0	0	---	0.00	29.821 
22:25	71.5	71.5	71.5	90	68.4	0	0	---	0.00	29.821 
22:30	71.3	71.3	71.3	91	68.5	0	0	---	0.00	29.822 
22:35	71.3	71.3	71.3	91	68.5	0	0	---	0.00	29.822 
22:40	71.1	71.1	71.1	91	68.3	0	0	---	0.00	29.822 
22:45	71.1	71.1	71.1	91	68.3	0	0	---	0.00	29.823 
22:50	71.1	71.1	71.1	92	68.7	0	0	---	0.00	29.823 
22:55	70.9	70.9	70.9	92	68.5	0	0	---	0.00	29.823 
23:00	70.9	70.9	70.9	92	68.5	0	0	---	0.00	29.822 
23:05	70.9	70.9	70.9	92	68.5	0	0	---	0.00	29.822 
23:10	70.9	70.9	70.9	92	68.5	0	1	112	0.00	29.822 
23:15	70.9	70.9	70.9	92	68.5	0	0	---	0.00	29.818 
23:20	70.9	70.9	70.9	92	68.5	0	0	---	0.00	29.818 
23:25	70.9	70.9	70.9	92	68.5	0	0	---	0.00	29.818 
23:30	70.8	70.8	70.8	92	68.4	0	0	---	0.00	29.815 
23:35	70.9	70.9	70.9	92	68.5	0	1	112	0.00	29.815 
23:40	70.9	70.9	70.9	92	68.5	0	1	112	0.00	29.815 
23:45	70.9	70.9	70.9	91	68.1	0	0	---	0.00	29.818 
23:50	70.9	70.9	70.9	91	68.1	0	0	---	0.00	29.818 
23:55	70.9	70.9	70.9	91	68.1	0	0	---	0.00	29.818 

CoCoRaHS
IN-AL-39
A2 Web Hosting
Creative Commons License
GoDaddy
search engine by freefind advanced

loaded 2018-11-15 13:51:38 • last modified 2010-11-18 10:43:29
Privacy PolicyDisclaimer
• wx.awcolley.com is powered by PmWiki v.2002016 •
• all content (unless otherwise noted) © 2018 A W Colley